sensor_id;sensor_type;location;lat;lon;timestamp;temperature;humidity
25140;DHT22;39015;48.106;-1.682;2023-02-28T06:51:27;11.00;56.40
25140;DHT22;39015;48.106;-1.682;2023-02-28T06:53:54;11.00;56.30
25140;DHT22;39015;48.106;-1.682;2023-02-28T06:56:21;11.00;56.30
25140;DHT22;39015;48.106;-1.682;2023-02-28T06:58:48;11.10;56.60
25140;DHT22;39015;48.106;-1.682;2023-02-28T07:01:16;11.10;56.20
25140;DHT22;39015;48.106;-1.682;2023-02-28T07:03:44;11.10;56.20
25140;DHT22;39015;48.106;-1.682;2023-02-28T07:06:11;11.10;56.10
25140;DHT22;39015;48.106;-1.682;2023-02-28T07:08:40;11.10;56.20
25140;DHT22;39015;48.106;-1.682;2023-02-28T07:11:07;11.10;56.10
25140;DHT22;39015;48.106;-1.682;2023-02-28T07:13:34;11.10;56.10
25140;DHT22;39015;48.106;-1.682;2023-02-28T07:16:02;11.00;56.00
25140;DHT22;39015;48.106;-1.682;2023-02-28T07:18:30;11.10;56.10
25140;DHT22;39015;48.106;-1.682;2023-02-28T07:20:57;11.10;56.10
25140;DHT22;39015;48.106;-1.682;2023-02-28T07:23:24;11.10;56.00
25140;DHT22;39015;48.106;-1.682;2023-02-28T07:25:53;11.10;56.00
25140;DHT22;39015;48.106;-1.682;2023-02-28T07:28:23;11.00;55.90
25140;DHT22;39015;48.106;-1.682;2023-02-28T07:30:50;11.00;56.00
25140;DHT22;39015;48.106;-1.682;2023-02-28T07:33:18;11.00;56.10
25140;DHT22;39015;48.106;-1.682;2023-02-28T07:35:45;11.00;56.10
25140;DHT22;39015;48.106;-1.682;2023-02-28T07:38:13;11.00;56.20
25140;DHT22;39015;48.106;-1.682;2023-02-28T07:40:40;11.00;56.20
25140;DHT22;39015;48.106;-1.682;2023-02-28T07:43:08;11.00;56.20
25140;DHT22;39015;48.106;-1.682;2023-02-28T07:45:36;11.00;56.20
25140;DHT22;39015;48.106;-1.682;2023-02-28T07:48:03;10.90;56.20
25140;DHT22;39015;48.106;-1.682;2023-02-28T07:50:30;10.90;56.30
25140;DHT22;39015;48.106;-1.682;2023-02-28T07:52:57;10.90;56.30
25140;DHT22;39015;48.106;-1.682;2023-02-28T07:55:24;10.90;56.30
25140;DHT22;39015;48.106;-1.682;2023-02-28T07:57:57;10.90;56.40
25140;DHT22;39015;48.106;-1.682;2023-02-28T08:00:30;10.90;56.40
25140;DHT22;39015;48.106;-1.682;2023-02-28T08:02:58;10.90;56.50
25140;DHT22;39015;48.106;-1.682;2023-02-28T08:05:26;10.90;56.50
25140;DHT22;39015;48.106;-1.682;2023-02-28T08:07:53;10.90;56.60
25140;DHT22;39015;48.106;-1.682;2023-02-28T08:10:20;10.90;56.60
25140;DHT22;39015;48.106;-1.682;2023-02-28T08:12:47;10.90;56.60
25140;DHT22;39015;48.106;-1.682;2023-02-28T08:15:14;10.90;56.70
25140;DHT22;39015;48.106;-1.682;2023-02-28T08:17:43;10.90;56.70
25140;DHT22;39015;48.106;-1.682;2023-02-28T08:20:11;10.90;56.70
25140;DHT22;39015;48.106;-1.682;2023-02-28T08:22:38;10.90;56.70
25140;DHT22;39015;48.106;-1.682;2023-02-28T08:25:06;10.90;56.70
25140;DHT22;39015;48.106;-1.682;2023-02-28T08:27:34;11.00;56.80
25140;DHT22;39015;48.106;-1.682;2023-02-28T08:30:01;11.00;56.80
25140;DHT22;39015;48.106;-1.682;2023-02-28T08:32:28;11.00;56.80
25140;DHT22;39015;48.106;-1.682;2023-02-28T08:34:57;11.00;56.90
25140;DHT22;39015;48.106;-1.682;2023-02-28T08:37:24;11.00;56.90
25140;DHT22;39015;48.106;-1.682;2023-02-28T08:39:52;11.00;56.80
25140;DHT22;39015;48.106;-1.682;2023-02-28T08:42:19;11.00;56.80
25140;DHT22;39015;48.106;-1.682;2023-02-28T08:44:46;11.10;56.70
25140;DHT22;39015;48.106;-1.682;2023-02-28T08:47:13;11.10;56.70
25140;DHT22;39015;48.106;-1.682;2023-02-28T08:49:40;11.20;56.70
25140;DHT22;39015;48.106;-1.682;2023-02-28T08:52:09;11.20;56.60
25140;DHT22;39015;48.106;-1.682;2023-02-28T08:54:36;11.20;56.50
25140;DHT22;39015;48.106;-1.682;2023-02-28T08:57:03;11.20;56.40
25140;DHT22;39015;48.106;-1.682;2023-02-28T08:59:31;11.30;56.40
25140;DHT22;39015;48.106;-1.682;2023-02-28T09:01:58;11.30;56.40
25140;DHT22;39015;48.106;-1.682;2023-02-28T09:04:25;11.30;56.40
25140;DHT22;39015;48.106;-1.682;2023-02-28T09:06:52;11.30;56.40
25140;DHT22;39015;48.106;-1.682;2023-02-28T09:09:22;11.30;56.40
25140;DHT22;39015;48.106;-1.682;2023-02-28T09:11:49;11.30;56.30
25140;DHT22;39015;48.106;-1.682;2023-02-28T09:14:16;11.40;56.40
25140;DHT22;39015;48.106;-1.682;2023-02-28T09:16:44;11.40;56.40
25140;DHT22;39015;48.106;-1.682;2023-02-28T09:19:11;11.40;56.40
25140;DHT22;39015;48.106;-1.682;2023-02-28T09:21:38;11.40;56.30
25140;DHT22;39015;48.106;-1.682;2023-02-28T09:24:06;11.40;56.30
25140;DHT22;39015;48.106;-1.682;2023-02-28T09:26:35;11.40;56.30
25140;DHT22;39015;48.106;-1.682;2023-02-28T09:29:01;11.50;56.30
25140;DHT22;39015;48.106;-1.682;2023-02-28T09:31:29;11.50;56.20
25140;DHT22;39015;48.106;-1.682;2023-02-28T09:33:57;11.50;56.20
25140;DHT22;39015;48.106;-1.682;2023-02-28T09:36:26;11.50;56.20
25140;DHT22;39015;48.106;-1.682;2023-02-28T09:38:53;11.60;56.20
25140;DHT22;39015;48.106;-1.682;2023-02-28T09:41:23;11.60;56.10
25140;DHT22;39015;48.106;-1.682;2023-02-28T09:43:55;11.60;56.20
25140;DHT22;39015;48.106;-1.682;2023-02-28T09:46:29;11.60;56.10
25140;DHT22;39015;48.106;-1.682;2023-02-28T09:49:00;11.60;56.10
25140;DHT22;39015;48.106;-1.682;2023-02-28T09:51:39;11.70;56.20
25140;DHT22;39015;48.106;-1.682;2023-02-28T09:54:10;11.70;56.10
25140;DHT22;39015;48.106;-1.682;2023-02-28T09:56:45;11.70;56.20
25140;DHT22;39015;48.106;-1.682;2023-02-28T09:59:24;11.70;56.10
25140;DHT22;39015;48.106;-1.682;2023-02-28T10:02:00;11.70;56.10
25140;DHT22;39015;48.106;-1.682;2023-02-28T10:04:37;11.80;56.20
25140;DHT22;39015;48.106;-1.682;2023-02-28T10:07:17;11.80;56.20
25140;DHT22;39015;48.106;-1.682;2023-02-28T10:09:51;11.80;56.20
25140;DHT22;39015;48.106;-1.682;2023-02-28T10:12:20;11.80;56.20
25140;DHT22;39015;48.106;-1.682;2023-02-28T10:14:51;11.80;56.10
25140;DHT22;39015;48.106;-1.682;2023-02-28T10:17:21;11.80;56.10
25140;DHT22;39015;48.106;-1.682;2023-02-28T10:19:57;11.80;56.10
25140;DHT22;39015;48.106;-1.682;2023-02-28T10:22:30;11.90;56.20
25140;DHT22;39015;48.106;-1.682;2023-02-28T10:25:01;11.90;56.20
25140;DHT22;39015;48.106;-1.682;2023-02-28T10:27:30;11.90;56.20
25140;DHT22;39015;48.106;-1.682;2023-02-28T10:30:00;11.90;56.20
25140;DHT22;39015;48.106;-1.682;2023-02-28T10:32:30;11.90;56.20
25140;DHT22;39015;48.106;-1.682;2023-02-28T10:35:00;12.00;56.20
25140;DHT22;39015;48.106;-1.682;2023-02-28T10:37:28;12.00;56.10
25140;DHT22;39015;48.106;-1.682;2023-02-28T10:39:55;12.00;56.10
25140;DHT22;39015;48.106;-1.682;2023-02-28T10:42:24;12.00;56.10
25140;DHT22;39015;48.106;-1.682;2023-02-28T10:45:13;12.00;56.10
25140;DHT22;39015;48.106;-1.682;2023-02-28T10:47:49;12.00;56.10
25140;DHT22;39015;48.106;-1.682;2023-02-28T10:50:39;12.10;56.20
25140;DHT22;39015;48.106;-1.682;2023-02-28T10:53:28;12.10;56.20
25140;DHT22;39015;48.106;-1.682;2023-02-28T10:56:05;12.10;56.20
25140;DHT22;39015;48.106;-1.682;2023-02-28T10:58:53;12.10;56.20
25140;DHT22;39015;48.106;-1.682;2023-02-28T11:01:24;12.20;56.90
25140;DHT22;39015;48.106;-1.682;2023-02-28T11:03:53;12.20;56.10
25140;DHT22;39015;48.106;-1.682;2023-02-28T11:06:22;12.20;56.10
25140;DHT22;39015;48.106;-1.682;2023-02-28T11:08:52;12.20;56.00
25140;DHT22;39015;48.106;-1.682;2023-02-28T11:11:21;12.30;56.00
25140;DHT22;39015;48.106;-1.682;2023-02-28T11:13:52;12.30;56.00
25140;DHT22;39015;48.106;-1.682;2023-02-28T11:16:29;12.30;56.00
25140;DHT22;39015;48.106;-1.682;2023-02-28T11:18:58;12.30;56.00
25140;DHT22;39015;48.106;-1.682;2023-02-28T11:21:27;12.30;56.00
25140;DHT22;39015;48.106;-1.682;2023-02-28T11:24:02;12.40;56.00
25140;DHT22;39015;48.106;-1.682;2023-02-28T11:26:41;12.40;56.00
25140;DHT22;39015;48.106;-1.682;2023-02-28T11:29:17;12.40;55.90
25140;DHT22;39015;48.106;-1.682;2023-02-28T11:34:41;12.40;55.90
25140;DHT22;39015;48.106;-1.682;2023-02-28T11:37:12;12.50;55.90
25140;DHT22;39015;48.106;-1.682;2023-02-28T11:39:40;12.50;55.80
25140;DHT22;39015;48.106;-1.682;2023-02-28T11:42:23;12.50;55.90
25140;DHT22;39015;48.106;-1.682;2023-02-28T11:45:07;12.60;55.90
25140;DHT22;39015;48.106;-1.682;2023-02-28T11:47:45;12.60;55.90
25140;DHT22;39015;48.106;-1.682;2023-02-28T11:50:34;12.60;55.80
25140;DHT22;39015;48.106;-1.682;2023-02-28T11:53:13;12.60;55.80
25140;DHT22;39015;48.106;-1.682;2023-02-28T11:55:43;12.70;55.80
25140;DHT22;39015;48.106;-1.682;2023-02-28T11:58:24;12.70;55.80
25140;DHT22;39015;48.106;-1.682;2023-02-28T12:01:03;12.70;55.80
25140;DHT22;39015;48.106;-1.682;2023-02-28T12:03:42;12.70;55.80
25140;DHT22;39015;48.106;-1.682;2023-02-28T12:06:22;12.70;55.80
25140;DHT22;39015;48.106;-1.682;2023-02-28T12:09:12;12.70;55.80
25140;DHT22;39015;48.106;-1.682;2023-02-28T12:11:49;12.80;55.70
25140;DHT22;39015;48.106;-1.682;2023-02-28T12:14:46;12.80;55.70
25140;DHT22;39015;48.106;-1.682;2023-02-28T12:17:25;12.80;55.80
25140;DHT22;39015;48.106;-1.682;2023-02-28T12:20:05;12.70;55.70
25140;DHT22;39015;48.106;-1.682;2023-02-28T12:22:40;12.80;55.80
25140;DHT22;39015;48.106;-1.682;2023-02-28T12:25:42;12.80;55.90
25140;DHT22;39015;48.106;-1.682;2023-02-28T12:28:15;12.80;55.80
25140;DHT22;39015;48.106;-1.682;2023-02-28T12:30:50;12.80;55.80
25140;DHT22;39015;48.106;-1.682;2023-02-28T12:33:20;12.80;55.80
25140;DHT22;39015;48.106;-1.682;2023-02-28T12:35:56;12.90;55.80
25140;DHT22;39015;48.106;-1.682;2023-02-28T12:38:27;12.90;55.80
25140;DHT22;39015;48.106;-1.682;2023-02-28T12:40:58;12.90;55.80
25140;DHT22;39015;48.106;-1.682;2023-02-28T12:43:32;12.90;55.90
25140;DHT22;39015;48.106;-1.682;2023-02-28T12:46:05;12.90;55.80
25140;DHT22;39015;48.106;-1.682;2023-02-28T12:48:40;12.90;55.80
25140;DHT22;39015;48.106;-1.682;2023-02-28T12:51:09;12.90;55.80
25140;DHT22;39015;48.106;-1.682;2023-02-28T12:53:52;12.90;56.00
25140;DHT22;39015;48.106;-1.682;2023-02-28T12:56:29;12.90;56.10
25140;DHT22;39015;48.106;-1.682;2023-02-28T12:59:01;12.90;56.10
25140;DHT22;39015;48.106;-1.682;2023-02-28T13:04:42;12.80;56.80
25140;DHT22;39015;48.106;-1.682;2023-02-28T13:07:33;12.90;56.10
25140;DHT22;39015;48.106;-1.682;2023-02-28T13:10:06;12.90;56.10
25140;DHT22;39015;48.106;-1.682;2023-02-28T13:12:34;12.90;56.10
25140;DHT22;39015;48.106;-1.682;2023-02-28T13:15:19;12.90;56.20
25140;DHT22;39015;48.106;-1.682;2023-02-28T13:17:51;12.90;56.20
25140;DHT22;39015;48.106;-1.682;2023-02-28T13:20:21;12.90;56.20
25140;DHT22;39015;48.106;-1.682;2023-02-28T13:22:49;12.90;56.20
25140;DHT22;39015;48.106;-1.682;2023-02-28T13:25:52;12.90;56.30
25140;DHT22;39015;48.106;-1.682;2023-02-28T13:34:38;13.00;56.40
25140;DHT22;39015;48.106;-1.682;2023-02-28T13:37:35;12.90;56.40
25140;DHT22;39015;48.106;-1.682;2023-02-28T13:40:29;12.90;56.40
25140;DHT22;39015;48.106;-1.682;2023-02-28T13:43:08;13.00;56.60
25140;DHT22;39015;48.106;-1.682;2023-02-28T13:46:11;12.90;56.60
25140;DHT22;39015;48.106;-1.682;2023-02-28T13:48:43;12.90;56.60
25140;DHT22;39015;48.106;-1.682;2023-02-28T13:51:44;12.90;56.70
25140;DHT22;39015;48.106;-1.682;2023-02-28T13:54:32;12.90;56.70
25140;DHT22;39015;48.106;-1.682;2023-02-28T13:57:15;12.90;56.80
25140;DHT22;39015;48.106;-1.682;2023-02-28T13:59:58;12.80;56.90
25140;DHT22;39015;48.106;-1.682;2023-02-28T14:05:32;12.80;56.90
25140;DHT22;39015;48.106;-1.682;2023-02-28T14:08:05;12.80;57.00
25140;DHT22;39015;48.106;-1.682;2023-02-28T14:10:37;12.80;57.00
25140;DHT22;39015;48.106;-1.682;2023-02-28T14:13:13;12.70;57.00
25140;DHT22;39015;48.106;-1.682;2023-02-28T14:15:47;12.70;57.10
25140;DHT22;39015;48.106;-1.682;2023-02-28T14:18:24;12.70;57.10
25140;DHT22;39015;48.106;-1.682;2023-02-28T14:20:56;12.70;57.10
25140;DHT22;39015;48.106;-1.682;2023-02-28T14:26:45;12.70;57.10
25140;DHT22;39015;48.106;-1.682;2023-02-28T14:29:29;12.70;57.20
25140;DHT22;39015;48.106;-1.682;2023-02-28T14:32:10;12.70;57.20
25140;DHT22;39015;48.106;-1.682;2023-02-28T14:34:43;12.60;57.10
25140;DHT22;39015;48.106;-1.682;2023-02-28T14:37:16;12.60;57.10
25140;DHT22;39015;48.106;-1.682;2023-02-28T14:39:46;12.60;57.00
25140;DHT22;39015;48.106;-1.682;2023-02-28T14:42:29;12.70;57.10
25140;DHT22;39015;48.106;-1.682;2023-02-28T14:44:57;12.70;57.10
25140;DHT22;39015;48.106;-1.682;2023-02-28T14:47:27;12.70;57.00
25140;DHT22;39015;48.106;-1.682;2023-02-28T14:49:55;12.70;57.10
25140;DHT22;39015;48.106;-1.682;2023-02-28T14:52:27;12.70;57.10
25140;DHT22;39015;48.106;-1.682;2023-02-28T14:54:57;12.70;57.10
25140;DHT22;39015;48.106;-1.682;2023-02-28T14:57:28;12.70;57.10
25140;DHT22;39015;48.106;-1.682;2023-02-28T15:00:00;12.80;57.10
25140;DHT22;39015;48.106;-1.682;2023-02-28T15:02:35;12.80;57.20
25140;DHT22;39015;48.106;-1.682;2023-02-28T15:05:18;12.80;57.10
25140;DHT22;39015;48.106;-1.682;2023-02-28T15:07:48;12.80;57.10
25140;DHT22;39015;48.106;-1.682;2023-02-28T15:10:24;12.80;57.10
25140;DHT22;39015;48.106;-1.682;2023-02-28T15:12:59;12.80;57.10
25140;DHT22;39015;48.106;-1.682;2023-02-28T15:15:40;12.70;57.30
25140;DHT22;39015;48.106;-1.682;2023-02-28T15:18:26;12.80;57.40
25140;DHT22;39015;48.106;-1.682;2023-02-28T15:20:57;12.80;57.40
25140;DHT22;39015;48.106;-1.682;2023-02-28T15:23:25;12.80;57.40
25140;DHT22;39015;48.106;-1.682;2023-02-28T15:25:53;12.80;57.40
25140;DHT22;39015;48.106;-1.682;2023-02-28T15:28:22;12.80;57.40
25140;DHT22;39015;48.106;-1.682;2023-02-28T15:30:53;12.80;57.50
25140;DHT22;39015;48.106;-1.682;2023-02-28T15:33:23;12.80;57.60
25140;DHT22;39015;48.106;-1.682;2023-02-28T15:35:51;12.80;57.50
25140;DHT22;39015;48.106;-1.682;2023-02-28T15:38:23;12.90;57.60
25140;DHT22;39015;48.106;-1.682;2023-02-28T15:40:52;12.90;57.60
25140;DHT22;39015;48.106;-1.682;2023-02-28T15:43:28;12.90;57.60
25140;DHT22;39015;48.106;-1.682;2023-02-28T15:45:58;12.90;57.80
25140;DHT22;39015;48.106;-1.682;2023-02-28T15:48:29;12.80;57.80
25140;DHT22;39015;48.106;-1.682;2023-02-28T15:51:02;12.80;58.00
25140;DHT22;39015;48.106;-1.682;2023-02-28T15:53:35;12.80;58.00
25140;DHT22;39015;48.106;-1.682;2023-02-28T15:56:05;12.80;57.90
25140;DHT22;39015;48.106;-1.682;2023-02-28T15:58:35;12.80;57.90
25140;DHT22;39015;48.106;-1.682;2023-02-28T16:01:06;12.90;58.00
25140;DHT22;39015;48.106;-1.682;2023-02-28T16:03:40;12.80;58.00
25140;DHT22;39015;48.106;-1.682;2023-02-28T16:06:30;12.80;58.20
25140;DHT22;39015;48.106;-1.682;2023-02-28T16:08:58;12.80;58.20
25140;DHT22;39015;48.106;-1.682;2023-02-28T16:11:25;12.80;58.20
25140;DHT22;39015;48.106;-1.682;2023-02-28T16:13:54;12.90;58.30
25140;DHT22;39015;48.106;-1.682;2023-02-28T16:16:23;12.90;58.20
25140;DHT22;39015;48.106;-1.682;2023-02-28T16:18:52;12.90;58.20
25140;DHT22;39015;48.106;-1.682;2023-02-28T16:21:19;12.90;58.20
25140;DHT22;39015;48.106;-1.682;2023-02-28T16:23:46;12.90;58.30
25140;DHT22;39015;48.106;-1.682;2023-02-28T16:26:19;12.90;58.50
25140;DHT22;39015;48.106;-1.682;2023-02-28T16:28:48;12.90;58.50
25140;DHT22;39015;48.106;-1.682;2023-02-28T16:31:15;12.80;58.80
25140;DHT22;39015;48.106;-1.682;2023-02-28T16:33:44;12.80;58.80
25140;DHT22;39015;48.106;-1.682;2023-02-28T16:36:17;12.80;58.90
25140;DHT22;39015;48.106;-1.682;2023-02-28T16:38:45;12.80;59.00
25140;DHT22;39015;48.106;-1.682;2023-02-28T16:41:19;12.80;58.90
25140;DHT22;39015;48.106;-1.682;2023-02-28T16:43:48;12.80;59.00
25140;DHT22;39015;48.106;-1.682;2023-02-28T16:46:16;12.80;59.10
25140;DHT22;39015;48.106;-1.682;2023-02-28T16:48:44;12.80;59.20
25140;DHT22;39015;48.106;-1.682;2023-02-28T16:51:13;12.80;59.20
25140;DHT22;39015;48.106;-1.682;2023-02-28T16:53:44;12.80;60.00
25140;DHT22;39015;48.106;-1.682;2023-02-28T16:56:15;12.80;59.30
25140;DHT22;39015;48.106;-1.682;2023-02-28T16:58:43;12.80;59.40
25140;DHT22;39015;48.106;-1.682;2023-02-28T17:01:10;12.70;59.50
25140;DHT22;39015;48.106;-1.682;2023-02-28T17:03:38;12.70;59.50
25140;DHT22;39015;48.106;-1.682;2023-02-28T17:06:06;12.70;59.60
25140;DHT22;39015;48.106;-1.682;2023-02-28T17:08:35;12.70;59.60
25140;DHT22;39015;48.106;-1.682;2023-02-28T17:11:04;12.70;59.70
25140;DHT22;39015;48.106;-1.682;2023-02-28T17:13:35;12.70;59.70
25140;DHT22;39015;48.106;-1.682;2023-02-28T17:16:02;12.70;59.80
25140;DHT22;39015;48.106;-1.682;2023-02-28T17:18:30;12.70;59.80
25140;DHT22;39015;48.106;-1.682;2023-02-28T17:20:59;12.70;59.80
25140;DHT22;39015;48.106;-1.682;2023-02-28T17:23:26;12.70;59.80
25140;DHT22;39015;48.106;-1.682;2023-02-28T17:25:53;12.80;59.80
25140;DHT22;39015;48.106;-1.682;2023-02-28T17:28:22;12.80;59.80
25140;DHT22;39015;48.106;-1.682;2023-02-28T17:30:49;12.80;59.70
25140;DHT22;39015;48.106;-1.682;2023-02-28T17:33:16;12.80;59.80
25140;DHT22;39015;48.106;-1.682;2023-02-28T17:35:43;12.80;59.90
25140;DHT22;39015;48.106;-1.682;2023-02-28T17:38:16;12.80;59.90
25140;DHT22;39015;48.106;-1.682;2023-02-28T17:40:44;12.80;60.00
25140;DHT22;39015;48.106;-1.682;2023-02-28T17:43:11;12.80;60.00
25140;DHT22;39015;48.106;-1.682;2023-02-28T17:45:39;12.80;60.00
25140;DHT22;39015;48.106;-1.682;2023-02-28T17:48:09;12.80;59.90
25140;DHT22;39015;48.106;-1.682;2023-02-28T17:50:36;12.90;59.90
25140;DHT22;39015;48.106;-1.682;2023-02-28T17:53:03;12.90;59.90
25140;DHT22;39015;48.106;-1.682;2023-02-28T17:55:31;12.90;60.00
25140;DHT22;39015;48.106;-1.682;2023-02-28T17:57:59;12.90;60.90
25140;DHT22;39015;48.106;-1.682;2023-02-28T18:00:26;12.90;59.90
25140;DHT22;39015;48.106;-1.682;2023-02-28T18:02:54;12.90;60.00
25140;DHT22;39015;48.106;-1.682;2023-02-28T18:05:21;12.90;60.00
25140;DHT22;39015;48.106;-1.682;2023-02-28T18:07:50;12.90;60.00
25140;DHT22;39015;48.106;-1.682;2023-02-28T18:10:18;12.90;60.00
25140;DHT22;39015;48.106;-1.682;2023-02-28T18:12:46;12.90;60.00
25140;DHT22;39015;48.106;-1.682;2023-02-28T18:15:13;12.90;60.00
25140;DHT22;39015;48.106;-1.682;2023-02-28T18:17:40;12.90;60.10
25140;DHT22;39015;48.106;-1.682;2023-02-28T18:20:10;12.90;60.10
25140;DHT22;39015;48.106;-1.682;2023-02-28T18:22:38;12.90;60.20
25140;DHT22;39015;48.106;-1.682;2023-02-28T18:25:07;12.90;60.30
25140;DHT22;39015;48.106;-1.682;2023-02-28T18:27:36;12.90;60.30
25140;DHT22;39015;48.106;-1.682;2023-02-28T18:30:03;12.90;60.40
25140;DHT22;39015;48.106;-1.682;2023-02-28T18:32:31;12.80;60.40
25140;DHT22;39015;48.106;-1.682;2023-02-28T18:34:58;12.80;60.40
25140;DHT22;39015;48.106;-1.682;2023-02-28T18:37:26;12.80;60.40
25140;DHT22;39015;48.106;-1.682;2023-02-28T18:39:53;12.80;60.40
25140;DHT22;39015;48.106;-1.682;2023-02-28T18:42:20;12.80;60.50
25140;DHT22;39015;48.106;-1.682;2023-02-28T18:44:47;12.80;60.50
25140;DHT22;39015;48.106;-1.682;2023-02-28T18:47:14;12.80;60.50
25140;DHT22;39015;48.106;-1.682;2023-02-28T18:49:41;12.80;60.60
25140;DHT22;39015;48.106;-1.682;2023-02-28T18:52:08;12.80;60.70
25140;DHT22;39015;48.106;-1.682;2023-02-28T18:54:36;12.80;60.80
25140;DHT22;39015;48.106;-1.682;2023-02-28T18:57:03;12.80;60.70
25140;DHT22;39015;48.106;-1.682;2023-02-28T18:59:31;12.80;60.80
25140;DHT22;39015;48.106;-1.682;2023-02-28T19:01:57;12.80;60.80
25140;DHT22;39015;48.106;-1.682;2023-02-28T19:04:25;12.80;60.80
25140;DHT22;39015;48.106;-1.682;2023-02-28T19:06:52;12.70;60.70
25140;DHT22;39015;48.106;-1.682;2023-02-28T19:09:19;12.70;60.70
25140;DHT22;39015;48.106;-1.682;2023-02-28T19:11:49;12.70;60.80
25140;DHT22;39015;48.106;-1.682;2023-02-28T19:14:16;12.70;60.80
25140;DHT22;39015;48.106;-1.682;2023-02-28T19:16:43;12.70;60.80
25140;DHT22;39015;48.106;-1.682;2023-02-28T19:19:11;12.70;60.80
25140;DHT22;39015;48.106;-1.682;2023-02-28T19:21:38;12.70;60.80
25140;DHT22;39015;48.106;-1.682;2023-02-28T19:24:07;12.70;60.90
25140;DHT22;39015;48.106;-1.682;2023-02-28T19:26:39;12.70;60.90
25140;DHT22;39015;48.106;-1.682;2023-02-28T19:29:08;12.70;60.80
25140;DHT22;39015;48.106;-1.682;2023-02-28T19:31:36;12.70;60.90
25140;DHT22;39015;48.106;-1.682;2023-02-28T19:34:04;12.70;60.80
25140;DHT22;39015;48.106;-1.682;2023-02-28T19:36:31;12.70;60.80
25140;DHT22;39015;48.106;-1.682;2023-02-28T19:39:01;12.70;60.80
25140;DHT22;39015;48.106;-1.682;2023-02-28T19:41:29;12.70;60.70
25140;DHT22;39015;48.106;-1.682;2023-02-28T19:43:59;12.70;60.70
25140;DHT22;39015;48.106;-1.682;2023-02-28T19:46:39;12.70;60.70
25140;DHT22;39015;48.106;-1.682;2023-02-28T19:49:06;12.70;60.80
25140;DHT22;39015;48.106;-1.682;2023-02-28T19:51:33;12.70;60.70
25140;DHT22;39015;48.106;-1.682;2023-02-28T19:54:06;12.70;60.80
25140;DHT22;39015;48.106;-1.682;2023-02-28T19:56:33;12.70;60.80
25140;DHT22;39015;48.106;-1.682;2023-02-28T19:59:02;12.70;60.80
25140;DHT22;39015;48.106;-1.682;2023-02-28T20:01:29;12.70;60.90
25140;DHT22;39015;48.106;-1.682;2023-02-28T20:03:59;12.60;60.80
25140;DHT22;39015;48.106;-1.682;2023-02-28T20:06:30;12.60;60.80
25140;DHT22;39015;48.106;-1.682;2023-02-28T20:08:57;12.60;60.90
25140;DHT22;39015;48.106;-1.682;2023-02-28T20:11:25;12.60;60.90
25140;DHT22;39015;48.106;-1.682;2023-02-28T20:13:52;12.60;60.80
25140;DHT22;39015;48.106;-1.682;2023-02-28T20:16:20;12.60;60.80
25140;DHT22;39015;48.106;-1.682;2023-02-28T20:18:49;12.60;60.80
25140;DHT22;39015;48.106;-1.682;2023-02-28T20:21:18;12.60;60.80
25140;DHT22;39015;48.106;-1.682;2023-02-28T20:23:46;12.60;60.80
25140;DHT22;39015;48.106;-1.682;2023-02-28T20:26:14;12.60;60.80
25140;DHT22;39015;48.106;-1.682;2023-02-28T20:28:45;12.50;60.80
25140;DHT22;39015;48.106;-1.682;2023-02-28T20:31:15;12.50;60.80
25140;DHT22;39015;48.106;-1.682;2023-02-28T20:33:44;12.50;60.80
25140;DHT22;39015;48.106;-1.682;2023-02-28T20:36:13;12.50;60.90
25140;DHT22;39015;48.106;-1.682;2023-02-28T20:38:43;12.50;60.90
25140;DHT22;39015;48.106;-1.682;2023-02-28T20:41:11;12.40;60.80
25140;DHT22;39015;48.106;-1.682;2023-02-28T20:43:39;12.40;60.80
25140;DHT22;39015;48.106;-1.682;2023-02-28T20:46:06;12.40;60.90
25140;DHT22;39015;48.106;-1.682;2023-02-28T20:48:33;12.40;60.80
25140;DHT22;39015;48.106;-1.682;2023-02-28T20:51:01;12.40;60.90
25140;DHT22;39015;48.106;-1.682;2023-02-28T20:53:31;12.40;60.90
25140;DHT22;39015;48.106;-1.682;2023-02-28T20:56:01;12.40;60.90
25140;DHT22;39015;48.106;-1.682;2023-02-28T20:58:29;12.30;60.80
25140;DHT22;39015;48.106;-1.682;2023-02-28T21:00:59;12.30;60.90
25140;DHT22;39015;48.106;-1.682;2023-02-28T21:03:26;12.30;60.80
25140;DHT22;39015;48.106;-1.682;2023-02-28T21:05:59;12.30;60.90
25140;DHT22;39015;48.106;-1.682;2023-02-28T21:08:26;12.30;60.90
25140;DHT22;39015;48.106;-1.682;2023-02-28T21:10:53;12.30;60.90
25140;DHT22;39015;48.106;-1.682;2023-02-28T21:13:21;12.30;60.90
25140;DHT22;39015;48.106;-1.682;2023-02-28T21:15:48;12.30;60.90
25140;DHT22;39015;48.106;-1.682;2023-02-28T21:18:15;12.30;60.80
25140;DHT22;39015;48.106;-1.682;2023-02-28T21:20:42;12.30;60.80
25140;DHT22;39015;48.106;-1.682;2023-02-28T21:23:10;12.30;60.80
25140;DHT22;39015;48.106;-1.682;2023-02-28T21:25:37;12.30;60.70
25140;DHT22;39015;48.106;-1.682;2023-02-28T21:28:04;12.30;60.60
